sensor_id;sensor_type;location;lat;lon;timestamp;temperature;humidity
18753;DHT22;9505;50.882;5.350;2022-10-16T00:00:53;14.10;99.90
18753;DHT22;9505;50.882;5.350;2022-10-16T00:03:18;14.10;99.90
18753;DHT22;9505;50.882;5.350;2022-10-16T00:05:44;14.00;99.90
18753;DHT22;9505;50.882;5.350;2022-10-16T00:08:11;14.00;99.90
18753;DHT22;9505;50.882;5.350;2022-10-16T00:10:37;14.00;99.90
18753;DHT22;9505;50.882;5.350;2022-10-16T00:13:04;14.00;99.90
18753;DHT22;9505;50.882;5.350;2022-10-16T00:15:30;13.90;99.90
18753;DHT22;9505;50.882;5.350;2022-10-16T00:17:58;13.90;99.90
18753;DHT22;9505;50.882;5.350;2022-10-16T00:20:23;13.90;99.90
18753;DHT22;9505;50.882;5.350;2022-10-16T00:22:49;13.90;99.90
18753;DHT22;9505;50.882;5.350;2022-10-16T00:25:15;13.90;99.90
18753;DHT22;9505;50.882;5.350;2022-10-16T00:27:40;13.90;99.90
18753;DHT22;9505;50.882;5.350;2022-10-16T00:30:07;13.80;99.90
18753;DHT22;9505;50.882;5.350;2022-10-16T00:32:33;13.80;99.90
18753;DHT22;9505;50.882;5.350;2022-10-16T00:34:59;13.80;99.90
18753;DHT22;9505;50.882;5.350;2022-10-16T00:37:24;13.70;99.90
18753;DHT22;9505;50.882;5.350;2022-10-16T00:39:50;13.80;99.90
18753;DHT22;9505;50.882;5.350;2022-10-16T00:42:17;13.80;99.90
18753;DHT22;9505;50.882;5.350;2022-10-16T00:44:55;13.80;99.90
18753;DHT22;9505;50.882;5.350;2022-10-16T00:47:28;13.80;99.90
18753;DHT22;9505;50.882;5.350;2022-10-16T00:50:08;13.80;99.90
18753;DHT22;9505;50.882;5.350;2022-10-16T00:52:35;13.90;99.90
18753;DHT22;9505;50.882;5.350;2022-10-16T00:55:03;13.80;99.90
18753;DHT22;9505;50.882;5.350;2022-10-16T00:57:29;13.80;99.90
18753;DHT22;9505;50.882;5.350;2022-10-16T00:59:54;13.80;99.90
18753;DHT22;9505;50.882;5.350;2022-10-16T01:02:20;13.80;99.90
18753;DHT22;9505;50.882;5.350;2022-10-16T01:04:52;13.80;99.90
18753;DHT22;9505;50.882;5.350;2022-10-16T01:15:10;13.60;99.90
18753;DHT22;9505;50.882;5.350;2022-10-16T01:17:45;13.60;99.90
18753;DHT22;9505;50.882;5.350;2022-10-16T01:25:56;13.50;99.90
18753;DHT22;9505;50.882;5.350;2022-10-16T01:28:29;13.50;99.90
18753;DHT22;9505;50.882;5.350;2022-10-16T01:30:58;13.50;99.90
18753;DHT22;9505;50.882;5.350;2022-10-16T01:33:51;13.50;99.90
18753;DHT22;9505;50.882;5.350;2022-10-16T01:36:22;13.40;99.90
18753;DHT22;9505;50.882;5.350;2022-10-16T01:38:53;13.40;99.90
18753;DHT22;9505;50.882;5.350;2022-10-16T01:41:24;13.40;99.90
18753;DHT22;9505;50.882;5.350;2022-10-16T01:43:58;13.40;99.90
18753;DHT22;9505;50.882;5.350;2022-10-16T01:46:28;13.40;99.90
18753;DHT22;9505;50.882;5.350;2022-10-16T01:48:55;13.50;99.90
18753;DHT22;9505;50.882;5.350;2022-10-16T01:51:23;13.50;99.90
18753;DHT22;9505;50.882;5.350;2022-10-16T01:53:53;13.50;99.90
18753;DHT22;9505;50.882;5.350;2022-10-16T01:56:20;13.50;99.90
18753;DHT22;9505;50.882;5.350;2022-10-16T01:58:53;13.50;99.90
18753;DHT22;9505;50.882;5.350;2022-10-16T02:01:22;13.60;99.90
18753;DHT22;9505;50.882;5.350;2022-10-16T02:03:52;13.60;99.90
18753;DHT22;9505;50.882;5.350;2022-10-16T02:06:19;13.60;99.90
18753;DHT22;9505;50.882;5.350;2022-10-16T02:08:45;13.60;99.90
18753;DHT22;9505;50.882;5.350;2022-10-16T02:11:10;13.60;99.90
18753;DHT22;9505;50.882;5.350;2022-10-16T02:13:55;13.60;99.90
18753;DHT22;9505;50.882;5.350;2022-10-16T02:16:23;13.70;99.90
18753;DHT22;9505;50.882;5.350;2022-10-16T02:18:57;13.70;99.90
18753;DHT22;9505;50.882;5.350;2022-10-16T02:21:26;13.70;99.90
18753;DHT22;9505;50.882;5.350;2022-10-16T02:29:10;13.70;99.90
18753;DHT22;9505;50.882;5.350;2022-10-16T02:31:41;13.70;99.90
18753;DHT22;9505;50.882;5.350;2022-10-16T02:34:08;13.60;99.90
18753;DHT22;9505;50.882;5.350;2022-10-16T02:36:37;13.60;99.90
18753;DHT22;9505;50.882;5.350;2022-10-16T02:39:04;13.60;99.90
18753;DHT22;9505;50.882;5.350;2022-10-16T02:41:31;13.60;99.90
18753;DHT22;9505;50.882;5.350;2022-10-16T02:43:57;13.60;99.90
18753;DHT22;9505;50.882;5.350;2022-10-16T02:46:22;13.60;99.90
18753;DHT22;9505;50.882;5.350;2022-10-16T02:48:48;13.60;99.90
18753;DHT22;9505;50.882;5.350;2022-10-16T02:51:14;13.60;99.90
18753;DHT22;9505;50.882;5.350;2022-10-16T02:53:39;13.60;99.90
18753;DHT22;9505;50.882;5.350;2022-10-16T02:56:05;13.60;99.90
18753;DHT22;9505;50.882;5.350;2022-10-16T02:58:30;13.60;99.90
18753;DHT22;9505;50.882;5.350;2022-10-16T03:00:56;13.70;99.90
18753;DHT22;9505;50.882;5.350;2022-10-16T03:03:22;13.70;99.90
18753;DHT22;9505;50.882;5.350;2022-10-16T03:05:47;13.60;99.90
18753;DHT22;9505;50.882;5.350;2022-10-16T03:08:13;13.60;99.90
18753;DHT22;9505;50.882;5.350;2022-10-16T03:10:39;13.50;99.90
18753;DHT22;9505;50.882;5.350;2022-10-16T03:13:05;13.50;99.90
18753;DHT22;9505;50.882;5.350;2022-10-16T03:15:30;13.50;99.90
18753;DHT22;9505;50.882;5.350;2022-10-16T03:17:59;13.40;99.90
18753;DHT22;9505;50.882;5.350;2022-10-16T03:20:25;13.40;99.90
18753;DHT22;9505;50.882;5.350;2022-10-16T03:22:51;13.30;99.90
18753;DHT22;9505;50.882;5.350;2022-10-16T03:25:17;13.30;99.90
18753;DHT22;9505;50.882;5.350;2022-10-16T03:27:43;13.30;99.90
18753;DHT22;9505;50.882;5.350;2022-10-16T03:30:09;13.30;99.90
18753;DHT22;9505;50.882;5.350;2022-10-16T03:32:35;13.20;99.90
18753;DHT22;9505;50.882;5.350;2022-10-16T03:35:01;13.20;99.90
18753;DHT22;9505;50.882;5.350;2022-10-16T03:37:27;13.20;99.90
18753;DHT22;9505;50.882;5.350;2022-10-16T03:39:52;13.20;99.90
18753;DHT22;9505;50.882;5.350;2022-10-16T03:42:18;13.20;99.90
18753;DHT22;9505;50.882;5.350;2022-10-16T03:44:44;13.20;99.90
18753;DHT22;9505;50.882;5.350;2022-10-16T03:47:09;13.20;99.90
18753;DHT22;9505;50.882;5.350;2022-10-16T03:49:35;13.20;99.90
18753;DHT22;9505;50.882;5.350;2022-10-16T03:52:00;13.20;99.90
18753;DHT22;9505;50.882;5.350;2022-10-16T03:54:26;13.10;99.90
18753;DHT22;9505;50.882;5.350;2022-10-16T03:56:52;13.10;99.90
18753;DHT22;9505;50.882;5.350;2022-10-16T03:59:17;13.10;99.90
18753;DHT22;9505;50.882;5.350;2022-10-16T04:01:43;13.10;99.90
18753;DHT22;9505;50.882;5.350;2022-10-16T04:04:08;13.10;99.90
18753;DHT22;9505;50.882;5.350;2022-10-16T04:06:34;13.10;99.90
18753;DHT22;9505;50.882;5.350;2022-10-16T04:09:00;13.10;99.90
18753;DHT22;9505;50.882;5.350;2022-10-16T04:11:25;13.10;99.90
18753;DHT22;9505;50.882;5.350;2022-10-16T04:13:51;13.20;99.90
18753;DHT22;9505;50.882;5.350;2022-10-16T04:16:16;13.20;99.90
18753;DHT22;9505;50.882;5.350;2022-10-16T04:18:43;13.10;99.90
18753;DHT22;9505;50.882;5.350;2022-10-16T04:21:09;13.10;99.90
18753;DHT22;9505;50.882;5.350;2022-10-16T04:23:34;13.10;99.90
18753;DHT22;9505;50.882;5.350;2022-10-16T04:26:00;13.10;99.90
18753;DHT22;9505;50.882;5.350;2022-10-16T04:28:27;13.10;99.90
18753;DHT22;9505;50.882;5.350;2022-10-16T04:30:53;13.10;99.90
18753;DHT22;9505;50.882;5.350;2022-10-16T04:33:18;13.30;99.90
18753;DHT22;9505;50.882;5.350;2022-10-16T04:35:44;13.20;99.90
18753;DHT22;9505;50.882;5.350;2022-10-16T04:38:10;13.20;99.90
18753;DHT22;9505;50.882;5.350;2022-10-16T04:40:35;13.20;99.90
18753;DHT22;9505;50.882;5.350;2022-10-16T04:43:04;13.20;99.90
18753;DHT22;9505;50.882;5.350;2022-10-16T04:45:31;13.20;99.90
18753;DHT22;9505;50.882;5.350;2022-10-16T04:47:57;13.20;99.90
18753;DHT22;9505;50.882;5.350;2022-10-16T04:50:23;13.20;99.90
18753;DHT22;9505;50.882;5.350;2022-10-16T04:52:49;13.20;99.90
18753;DHT22;9505;50.882;5.350;2022-10-16T04:55:15;13.20;99.90
18753;DHT22;9505;50.882;5.350;2022-10-16T04:57:41;13.20;99.90
18753;DHT22;9505;50.882;5.350;2022-10-16T05:00:07;13.20;99.90
18753;DHT22;9505;50.882;5.350;2022-10-16T05:02:33;13.20;99.90
18753;DHT22;9505;50.882;5.350;2022-10-16T05:04:59;13.30;99.90
18753;DHT22;9505;50.882;5.350;2022-10-16T05:07:25;13.30;99.90
18753;DHT22;9505;50.882;5.350;2022-10-16T05:09:50;13.30;99.90
18753;DHT22;9505;50.882;5.350;2022-10-16T05:12:16;13.30;99.90
18753;DHT22;9505;50.882;5.350;2022-10-16T05:14:41;13.20;99.90
18753;DHT22;9505;50.882;5.350;2022-10-16T05:17:07;13.20;99.90
18753;DHT22;9505;50.882;5.350;2022-10-16T05:19:32;13.20;99.90
18753;DHT22;9505;50.882;5.350;2022-10-16T05:21:58;13.10;99.90
18753;DHT22;9505;50.882;5.350;2022-10-16T05:24:24;13.10;99.90
18753;DHT22;9505;50.882;5.350;2022-10-16T05:26:50;13.00;99.90
18753;DHT22;9505;50.882;5.350;2022-10-16T05:29:15;13.10;99.90
18753;DHT22;9505;50.882;5.350;2022-10-16T05:31:41;13.10;99.90
18753;DHT22;9505;50.882;5.350;2022-10-16T05:34:08;13.10;99.90
18753;DHT22;9505;50.882;5.350;2022-10-16T05:36:33;13.10;99.90
18753;DHT22;9505;50.882;5.350;2022-10-16T05:38:59;13.10;99.90
18753;DHT22;9505;50.882;5.350;2022-10-16T05:41:24;13.10;99.90
18753;DHT22;9505;50.882;5.350;2022-10-16T05:43:51;13.10;99.90
18753;DHT22;9505;50.882;5.350;2022-10-16T05:46:19;13.10;99.90
18753;DHT22;9505;50.882;5.350;2022-10-16T05:48:45;13.20;99.90
18753;DHT22;9505;50.882;5.350;2022-10-16T05:51:13;13.20;99.90
18753;DHT22;9505;50.882;5.350;2022-10-16T05:53:39;13.20;99.90
18753;DHT22;9505;50.882;5.350;2022-10-16T05:56:06;13.30;99.90
18753;DHT22;9505;50.882;5.350;2022-10-16T05:58:34;13.30;99.90
18753;DHT22;9505;50.882;5.350;2022-10-16T06:01:03;13.40;99.90
18753;DHT22;9505;50.882;5.350;2022-10-16T06:03:29;13.40;99.90
18753;DHT22;9505;50.882;5.350;2022-10-16T06:05:55;13.30;99.90
18753;DHT22;9505;50.882;5.350;2022-10-16T06:08:22;13.30;99.90
18753;DHT22;9505;50.882;5.350;2022-10-16T06:10:48;13.30;99.90
18753;DHT22;9505;50.882;5.350;2022-10-16T06:13:15;13.30;99.90
18753;DHT22;9505;50.882;5.350;2022-10-16T06:15:42;13.30;99.90
18753;DHT22;9505;50.882;5.350;2022-10-16T06:18:11;13.30;99.90
18753;DHT22;9505;50.882;5.350;2022-10-16T06:20:37;13.30;99.90
18753;DHT22;9505;50.882;5.350;2022-10-16T06:23:03;13.30;99.90
18753;DHT22;9505;50.882;5.350;2022-10-16T06:25:30;13.30;99.90
18753;DHT22;9505;50.882;5.350;2022-10-16T06:27:56;13.20;99.90
18753;DHT22;9505;50.882;5.350;2022-10-16T06:30:22;13.20;99.90
18753;DHT22;9505;50.882;5.350;2022-10-16T06:32:47;13.20;99.90
18753;DHT22;9505;50.882;5.350;2022-10-16T06:35:13;13.10;99.90
18753;DHT22;9505;50.882;5.350;2022-10-16T06:37:39;13.10;99.90
18753;DHT22;9505;50.882;5.350;2022-10-16T06:40:05;13.10;99.90
18753;DHT22;9505;50.882;5.350;2022-10-16T06:42:30;13.00;99.90
18753;DHT22;9505;50.882;5.350;2022-10-16T06:44:56;13.00;99.90
18753;DHT22;9505;50.882;5.350;2022-10-16T06:47:22;13.00;99.90
18753;DHT22;9505;50.882;5.350;2022-10-16T06:49:47;13.00;99.90
18753;DHT22;9505;50.882;5.350;2022-10-16T06:52:13;13.10;99.90
18753;DHT22;9505;50.882;5.350;2022-10-16T06:54:39;13.10;99.90
18753;DHT22;9505;50.882;5.350;2022-10-16T06:57:05;13.10;99.90
18753;DHT22;9505;50.882;5.350;2022-10-16T06:59:30;13.20;99.90
18753;DHT22;9505;50.882;5.350;2022-10-16T07:01:56;13.20;99.90
18753;DHT22;9505;50.882;5.350;2022-10-16T07:04:22;13.30;99.90
18753;DHT22;9505;50.882;5.350;2022-10-16T07:06:47;13.30;99.90
18753;DHT22;9505;50.882;5.350;2022-10-16T07:09:13;13.40;99.90
18753;DHT22;9505;50.882;5.350;2022-10-16T07:11:39;13.50;99.90
18753;DHT22;9505;50.882;5.350;2022-10-16T07:14:15;13.50;99.90
18753;DHT22;9505;50.882;5.350;2022-10-16T07:16:41;13.60;99.90
18753;DHT22;9505;50.882;5.350;2022-10-16T07:19:07;13.70;99.90
18753;DHT22;9505;50.882;5.350;2022-10-16T07:21:34;13.80;99.90
18753;DHT22;9505;50.882;5.350;2022-10-16T07:24:05;13.90;99.90
18753;DHT22;9505;50.882;5.350;2022-10-16T07:26:34;14.00;99.90
18753;DHT22;9505;50.882;5.350;2022-10-16T07:29:00;14.00;99.90
18753;DHT22;9505;50.882;5.350;2022-10-16T07:31:26;14.10;99.90
18753;DHT22;9505;50.882;5.350;2022-10-16T07:33:52;14.20;99.90
18753;DHT22;9505;50.882;5.350;2022-10-16T07:36:19;14.30;99.90
18753;DHT22;9505;50.882;5.350;2022-10-16T07:38:45;14.30;99.90
18753;DHT22;9505;50.882;5.350;2022-10-16T07:41:14;14.40;99.90
18753;DHT22;9505;50.882;5.350;2022-10-16T07:43:40;14.50;99.90
18753;DHT22;9505;50.882;5.350;2022-10-16T07:46:10;14.60;99.90
18753;DHT22;9505;50.882;5.350;2022-10-16T07:48:35;14.70;99.90
18753;DHT22;9505;50.882;5.350;2022-10-16T07:51:03;14.70;99.90
18753;DHT22;9505;50.882;5.350;2022-10-16T07:53:29;14.90;99.90
18753;DHT22;9505;50.882;5.350;2022-10-16T07:56:04;15.00;99.90
18753;DHT22;9505;50.882;5.350;2022-10-16T07:58:30;15.00;99.90
18753;DHT22;9505;50.882;5.350;2022-10-16T08:00:56;15.10;99.90
18753;DHT22;9505;50.882;5.350;2022-10-16T08:03:23;15.20;99.90
18753;DHT22;9505;50.882;5.350;2022-10-16T08:05:49;15.30;99.90
18753;DHT22;9505;50.882;5.350;2022-10-16T08:08:16;15.30;99.90
18753;DHT22;9505;50.882;5.350;2022-10-16T08:10:42;15.40;99.90
18753;DHT22;9505;50.882;5.350;2022-10-16T08:13:08;15.50;99.90
18753;DHT22;9505;50.882;5.350;2022-10-16T08:15:33;15.90;99.90
18753;DHT22;9505;50.882;5.350;2022-10-16T08:18:03;16.30;99.90
18753;DHT22;9505;50.882;5.350;2022-10-16T08:20:31;16.50;99.90
18753;DHT22;9505;50.882;5.350;2022-10-16T08:22:56;16.70;99.90
18753;DHT22;9505;50.882;5.350;2022-10-16T08:25:23;16.70;99.90
18753;DHT22;9505;50.882;5.350;2022-10-16T08:27:49;17.80;99.90
18753;DHT22;9505;50.882;5.350;2022-10-16T08:30:16;19.30;99.90
18753;DHT22;9505;50.882;5.350;2022-10-16T08:32:42;19.90;99.90
18753;DHT22;9505;50.882;5.350;2022-10-16T08:35:09;20.20;99.90
18753;DHT22;9505;50.882;5.350;2022-10-16T08:37:35;21.10;99.90
18753;DHT22;9505;50.882;5.350;2022-10-16T08:40:01;21.60;99.90
18753;DHT22;9505;50.882;5.350;2022-10-16T08:45:26;20.80;99.90
18753;DHT22;9505;50.882;5.350;2022-10-16T08:48:14;20.90;99.90
18753;DHT22;9505;50.882;5.350;2022-10-16T08:50:40;20.60;99.90
18753;DHT22;9505;50.882;5.350;2022-10-16T08:53:06;20.80;99.90
18753;DHT22;9505;50.882;5.350;2022-10-16T08:55:43;20.90;99.90
18753;DHT22;9505;50.882;5.350;2022-10-16T08:58:16;20.90;99.90
18753;DHT22;9505;50.882;5.350;2022-10-16T09:00:43;20.90;99.90
18753;DHT22;9505;50.882;5.350;2022-10-16T09:09:06;19.90;99.90
18753;DHT22;9505;50.882;5.350;2022-10-16T09:14:40;20.70;99.90
18753;DHT22;9505;50.882;5.350;2022-10-16T09:22:45;20.10;99.90
18753;DHT22;9505;50.882;5.350;2022-10-16T09:25:16;20.00;99.90
18753;DHT22;9505;50.882;5.350;2022-10-16T09:27:45;20.30;99.90
18753;DHT22;9505;50.882;5.350;2022-10-16T09:30:13;20.50;99.90
18753;DHT22;9505;50.882;5.350;2022-10-16T09:32:40;20.50;99.90
18753;DHT22;9505;50.882;5.350;2022-10-16T09:35:15;20.40;99.90
18753;DHT22;9505;50.882;5.350;2022-10-16T09:37:45;20.30;99.90
18753;DHT22;9505;50.882;5.350;2022-10-16T09:40:42;20.50;99.90
18753;DHT22;9505;50.882;5.350;2022-10-16T09:43:41;20.30;99.90
18753;DHT22;9505;50.882;5.350;2022-10-16T09:48:59;20.50;99.90
18753;DHT22;9505;50.882;5.350;2022-10-16T09:51:28;20.80;99.90
18753;DHT22;9505;50.882;5.350;2022-10-16T09:54:16;20.50;99.90
18753;DHT22;9505;50.882;5.350;2022-10-16T09:56:42;19.80;99.90
18753;DHT22;9505;50.882;5.350;2022-10-16T09:59:19;20.00;99.90
18753;DHT22;9505;50.882;5.350;2022-10-16T10:04:12;20.30;99.90
18753;DHT22;9505;50.882;5.350;2022-10-16T10:06:48;20.10;99.90
18753;DHT22;9505;50.882;5.350;2022-10-16T10:09:27;20.20;99.90
18753;DHT22;9505;50.882;5.350;2022-10-16T10:11:54;19.90;99.90
18753;DHT22;9505;50.882;5.350;2022-10-16T10:30:22;20.60;99.90
18753;DHT22;9505;50.882;5.350;2022-10-16T10:36:39;20.00;99.90
18753;DHT22;9505;50.882;5.350;2022-10-16T10:38:49;20.10;99.90
18753;DHT22;9505;50.882;5.350;2022-10-16T10:46:35;20.00;99.90
18753;DHT22;9505;50.882;5.350;2022-10-16T10:54:22;20.50;99.90
18753;DHT22;9505;50.882;5.350;2022-10-16T10:57:12;21.10;99.90
18753;DHT22;9505;50.882;5.350;2022-10-16T11:00:05;21.30;99.90
18753;DHT22;9505;50.882;5.350;2022-10-16T11:02:37;21.00;99.90
18753;DHT22;9505;50.882;5.350;2022-10-16T11:10:51;20.40;99.90
18753;DHT22;9505;50.882;5.350;2022-10-16T11:15:59;20.70;99.90
18753;DHT22;9505;50.882;5.350;2022-10-16T11:21:07;21.20;99.90
18753;DHT22;9505;50.882;5.350;2022-10-16T11:23:53;21.70;99.90
18753;DHT22;9505;50.882;5.350;2022-10-16T11:26:26;21.90;99.90
18753;DHT22;9505;50.882;5.350;2022-10-16T11:28:54;21.90;99.90
18753;DHT22;9505;50.882;5.350;2022-10-16T11:31:40;21.70;99.90
18753;DHT22;9505;50.882;5.350;2022-10-16T11:34:32;21.20;99.90
18753;DHT22;9505;50.882;5.350;2022-10-16T11:37:11;21.20;99.90
18753;DHT22;9505;50.882;5.350;2022-10-16T11:39:38;21.70;99.90
18753;DHT22;9505;50.882;5.350;2022-10-16T11:42:09;22.00;99.90
18753;DHT22;9505;50.882;5.350;2022-10-16T11:47:33;21.80;99.90
18753;DHT22;9505;50.882;5.350;2022-10-16T11:50:09;21.60;99.90
18753;DHT22;9505;50.882;5.350;2022-10-16T11:53:03;21.40;99.90
18753;DHT22;9505;50.882;5.350;2022-10-16T11:55:36;21.70;99.90
18753;DHT22;9505;50.882;5.350;2022-10-16T12:01:22;22.60;99.90
18753;DHT22;9505;50.882;5.350;2022-10-16T12:07:04;22.20;99.90
18753;DHT22;9505;50.882;5.350;2022-10-16T12:09:37;21.90;99.90
18753;DHT22;9505;50.882;5.350;2022-10-16T12:12:04;21.50;99.90
18753;DHT22;9505;50.882;5.350;2022-10-16T12:17:24;23.00;99.90
18753;DHT22;9505;50.882;5.350;2022-10-16T12:19:59;23.60;99.90
18753;DHT22;9505;50.882;5.350;2022-10-16T12:22:28;23.80;99.90
18753;DHT22;9505;50.882;5.350;2022-10-16T12:24:54;23.50;99.90
18753;DHT22;9505;50.882;5.350;2022-10-16T12:27:31;22.60;99.90
18753;DHT22;9505;50.882;5.350;2022-10-16T12:29:59;22.30;99.90
18753;DHT22;9505;50.882;5.350;2022-10-16T12:32:32;22.20;99.90
18753;DHT22;9505;50.882;5.350;2022-10-16T12:35:00;22.70;99.90
18753;DHT22;9505;50.882;5.350;2022-10-16T12:37:31;23.10;99.90
18753;DHT22;9505;50.882;5.350;2022-10-16T12:39:58;23.40;99.90
18753;DHT22;9505;50.882;5.350;2022-10-16T12:44:53;22.40;99.90
18753;DHT22;9505;50.882;5.350;2022-10-16T12:47:35;22.00;99.90
18753;DHT22;9505;50.882;5.350;2022-10-16T12:50:01;22.00;99.90
18753;DHT22;9505;50.882;5.350;2022-10-16T12:54:56;22.20;99.90
18753;DHT22;9505;50.882;5.350;2022-10-16T12:57:28;22.30;99.90
18753;DHT22;9505;50.882;5.350;2022-10-16T13:06:06;22.20;99.90
18753;DHT22;9505;50.882;5.350;2022-10-16T13:14:06;21.60;99.90
18753;DHT22;9505;50.882;5.350;2022-10-16T13:19:45;21.60;99.90
18753;DHT22;9505;50.882;5.350;2022-10-16T13:24:59;21.50;99.90
18753;DHT22;9505;50.882;5.350;2022-10-16T13:30:18;21.70;99.90
18753;DHT22;9505;50.882;5.350;2022-10-16T13:32:49;21.70;99.90
18753;DHT22;9505;50.882;5.350;2022-10-16T13:35:25;21.80;99.90
18753;DHT22;9505;50.882;5.350;2022-10-16T13:37:51;21.90;99.90
18753;DHT22;9505;50.882;5.350;2022-10-16T13:40:21;22.10;99.90
18753;DHT22;9505;50.882;5.350;2022-10-16T13:42:46;22.10;99.90
18753;DHT22;9505;50.882;5.350;2022-10-16T13:45:21;22.10;99.90
18753;DHT22;9505;50.882;5.350;2022-10-16T13:47:47;21.90;99.90
18753;DHT22;9505;50.882;5.350;2022-10-16T13:50:15;21.70;99.90
18753;DHT22;9505;50.882;5.350;2022-10-16T13:52:41;21.50;99.90
18753;DHT22;9505;50.882;5.350;2022-10-16T13:57:36;20.90;99.90
18753;DHT22;9505;50.882;5.350;2022-10-16T14:00:03;20.70;99.90
18753;DHT22;9505;50.882;5.350;2022-10-16T14:02:34;20.60;99.90
18753;DHT22;9505;50.882;5.350;2022-10-16T14:05:03;20.70;99.90
18753;DHT22;9505;50.882;5.350;2022-10-16T14:07:31;20.90;99.90
18753;DHT22;9505;50.882;5.350;2022-10-16T14:10:03;20.80;99.90
18753;DHT22;9505;50.882;5.350;2022-10-16T14:12:29;20.90;99.90
18753;DHT22;9505;50.882;5.350;2022-10-16T14:14:57;20.90;99.90
18753;DHT22;9505;50.882;5.350;2022-10-16T14:17:29;20.70;99.90
18753;DHT22;9505;50.882;5.350;2022-10-16T14:19:57;20.60;99.90
18753;DHT22;9505;50.882;5.350;2022-10-16T14:22:33;20.30;99.90
18753;DHT22;9505;50.882;5.350;2022-10-16T14:25:00;20.10;99.90
18753;DHT22;9505;50.882;5.350;2022-10-16T14:27:34;20.10;99.90
18753;DHT22;9505;50.882;5.350;2022-10-16T14:30:21;20.00;99.90
18753;DHT22;9505;50.882;5.350;2022-10-16T14:35:25;20.20;99.90
18753;DHT22;9505;50.882;5.350;2022-10-16T14:37:53;20.20;99.90
18753;DHT22;9505;50.882;5.350;2022-10-16T14:40:22;20.20;99.90
18753;DHT22;9505;50.882;5.350;2022-10-16T14:42:48;20.20;99.90
18753;DHT22;9505;50.882;5.350;2022-10-16T14:45:19;20.10;99.90
18753;DHT22;9505;50.882;5.350;2022-10-16T14:47:52;20.10;99.90
18753;DHT22;9505;50.882;5.350;2022-10-16T14:50:18;19.90;99.90
18753;DHT22;9505;50.882;5.350;2022-10-16T14:52:44;19.90;99.90
18753;DHT22;9505;50.882;5.350;2022-10-16T14:55:10;20.00;99.90
18753;DHT22;9505;50.882;5.350;2022-10-16T14:57:37;20.00;99.90
18753;DHT22;9505;50.882;5.350;2022-10-16T15:00:25;20.00;99.90
18753;DHT22;9505;50.882;5.350;2022-10-16T15:02:50;20.00;99.90
18753;DHT22;9505;50.882;5.350;2022-10-16T15:05:17;19.90;99.90
18753;DHT22;9505;50.882;5.350;2022-10-16T15:07:44;19.80;99.90
18753;DHT22;9505;50.882;5.350;2022-10-16T15:10:12;19.70;99.90
18753;DHT22;9505;50.882;5.350;2022-10-16T15:12:38;19.80;99.90
18753;DHT22;9505;50.882;5.350;2022-10-16T15:17:57;19.70;99.90
18753;DHT22;9505;50.882;5.350;2022-10-16T15:20:28;19.70;99.90
18753;DHT22;9505;50.882;5.350;2022-10-16T15:22:56;19.60;99.90
18753;DHT22;9505;50.882;5.350;2022-10-16T15:28:27;19.40;99.90
18753;DHT22;9505;50.882;5.350;2022-10-16T15:30:56;19.40;99.90
18753;DHT22;9505;50.882;5.350;2022-10-16T15:33:24;19.30;99.90
18753;DHT22;9505;50.882;5.350;2022-10-16T15:35:52;19.10;99.90
18753;DHT22;9505;50.882;5.350;2022-10-16T15:38:19;19.10;99.90
18753;DHT22;9505;50.882;5.350;2022-10-16T15:40:46;19.10;99.90
18753;DHT22;9505;50.882;5.350;2022-10-16T15:43:12;19.00;99.90
18753;DHT22;9505;50.882;5.350;2022-10-16T15:45:37;19.00;99.90
18753;DHT22;9505;50.882;5.350;2022-10-16T15:48:03;19.00;99.90
18753;DHT22;9505;50.882;5.350;2022-10-16T15:50:30;18.90;99.90
18753;DHT22;9505;50.882;5.350;2022-10-16T15:52:56;18.90;99.90
18753;DHT22;9505;50.882;5.350;2022-10-16T15:55:21;18.70;99.90
18753;DHT22;9505;50.882;5.350;2022-10-16T15:57:47;18.60;99.90
18753;DHT22;9505;50.882;5.350;2022-10-16T16:00:18;18.40;99.90
18753;DHT22;9505;50.882;5.350;2022-10-16T16:02:51;18.30;99.90
18753;DHT22;9505;50.882;5.350;2022-10-16T16:05:17;18.30;99.90
18753;DHT22;9505;50.882;5.350;2022-10-16T16:07:42;18.30;99.90
18753;DHT22;9505;50.882;5.350;2022-10-16T16:10:10;18.20;99.90
18753;DHT22;9505;50.882;5.350;2022-10-16T16:12:37;18.20;99.90
18753;DHT22;9505;50.882;5.350;2022-10-16T16:15:04;18.20;99.90
18753;DHT22;9505;50.882;5.350;2022-10-16T16:17:32;18.10;99.90
18753;DHT22;9505;50.882;5.350;2022-10-16T16:19:58;18.00;99.90
18753;DHT22;9505;50.882;5.350;2022-10-16T16:22:23;17.90;99.90
18753;DHT22;9505;50.882;5.350;2022-10-16T16:24:49;17.90;99.90
18753;DHT22;9505;50.882;5.350;2022-10-16T16:27:15;17.80;99.90
18753;DHT22;9505;50.882;5.350;2022-10-16T16:29:40;17.70;99.90
18753;DHT22;9505;50.882;5.350;2022-10-16T16:32:06;17.70;99.90
18753;DHT22;9505;50.882;5.350;2022-10-16T16:34:32;17.60;99.90
18753;DHT22;9505;50.882;5.350;2022-10-16T16:36:58;17.60;99.90
18753;DHT22;9505;50.882;5.350;2022-10-16T16:39:23;17.60;99.90
18753;DHT22;9505;50.882;5.350;2022-10-16T16:41:49;17.60;99.90
18753;DHT22;9505;50.882;5.350;2022-10-16T16:44:16;17.50;99.90
18753;DHT22;9505;50.882;5.350;2022-10-16T16:46:42;17.40;99.90
18753;DHT22;9505;50.882;5.350;2022-10-16T16:49:10;17.40;99.90
18753;DHT22;9505;50.882;5.350;2022-10-16T16:51:37;17.30;99.90
18753;DHT22;9505;50.882;5.350;2022-10-16T16:54:02;17.20;99.90
18753;DHT22;9505;50.882;5.350;2022-10-16T16:56:28;17.10;99.90
18753;DHT22;9505;50.882;5.350;2022-10-16T16:58:55;17.10;99.90
18753;DHT22;9505;50.882;5.350;2022-10-16T17:01:24;17.10;99.90
18753;DHT22;9505;50.882;5.350;2022-10-16T17:03:51;17.00;99.90
18753;DHT22;9505;50.882;5.350;2022-10-16T17:06:21;17.00;99.90
18753;DHT22;9505;50.882;5.350;2022-10-16T17:08:48;17.00;99.90
18753;DHT22;9505;50.882;5.350;2022-10-16T17:11:17;17.00;99.90
18753;DHT22;9505;50.882;5.350;2022-10-16T17:13:43;17.00;99.90
18753;DHT22;9505;50.882;5.350;2022-10-16T17:16:09;16.90;99.90
18753;DHT22;9505;50.882;5.350;2022-10-16T17:18:35;16.90;99.90
18753;DHT22;9505;50.882;5.350;2022-10-16T17:21:04;16.90;99.90
18753;DHT22;9505;50.882;5.350;2022-10-16T17:23:30;16.90;99.90
18753;DHT22;9505;50.882;5.350;2022-10-16T17:25:55;16.80;99.90
18753;DHT22;9505;50.882;5.350;2022-10-16T17:28:21;16.70;99.90
18753;DHT22;9505;50.882;5.350;2022-10-16T17:30:47;16.70;99.90
18753;DHT22;9505;50.882;5.350;2022-10-16T17:33:13;16.70;99.90
18753;DHT22;9505;50.882;5.350;2022-10-16T17:35:44;16.70;99.90
18753;DHT22;9505;50.882;5.350;2022-10-16T17:38:11;16.70;99.90
18753;DHT22;9505;50.882;5.350;2022-10-16T17:40:38;16.70;99.90
18753;DHT22;9505;50.882;5.350;2022-10-16T17:43:04;16.70;99.90
18753;DHT22;9505;50.882;5.350;2022-10-16T17:45:30;16.80;99.90
18753;DHT22;9505;50.882;5.350;2022-10-16T17:47:57;16.80;99.90
18753;DHT22;9505;50.882;5.350;2022-10-16T17:50:23;16.60;99.90
18753;DHT22;9505;50.882;5.350;2022-10-16T17:52:49;16.40;99.90
18753;DHT22;9505;50.882;5.350;2022-10-16T17:55:14;16.30;99.90
18753;DHT22;9505;50.882;5.350;2022-10-16T17:57:40;16.20;99.90
18753;DHT22;9505;50.882;5.350;2022-10-16T18:00:06;16.20;99.90
18753;DHT22;9505;50.882;5.350;2022-10-16T18:02:32;16.20;99.90